createdAt,value
2023-03-29T00:00:09.799Z,1.90
2023-03-29T00:02:53.706Z,1.33
2023-03-29T00:05:22.962Z,1.70
2023-03-29T00:07:53.893Z,1.90
2023-03-29T00:10:23.942Z,1.90
2023-03-29T00:12:52.346Z,1.98
2023-03-29T00:15:20.345Z,2.10
2023-03-29T00:17:48.205Z,1.90
2023-03-29T00:20:17.700Z,1.60
2023-03-29T00:22:46.595Z,1.70
2023-03-29T00:25:14.853Z,1.85
2023-03-29T00:27:42.945Z,1.70
2023-03-29T00:30:11.853Z,1.77
2023-03-29T00:32:39.633Z,1.50
2023-03-29T00:35:07.826Z,2.63
2023-03-29T00:37:37.851Z,2.38
2023-03-29T00:40:09.523Z,1.80
2023-03-29T00:42:37.725Z,1.40
2023-03-29T00:45:08.137Z,2.05
2023-03-29T00:47:41.457Z,1.40
2023-03-29T00:50:14.195Z,1.75
2023-03-29T00:52:47.443Z,1.85
2023-03-29T00:55:19.643Z,1.75
2023-03-29T00:57:49.223Z,1.60
2023-03-29T01:00:20.833Z,1.85
2023-03-29T01:02:54.187Z,1.48
2023-03-29T01:05:26.933Z,2.05
2023-03-29T01:08:02.008Z,1.70
2023-03-29T01:10:35.566Z,1.70
2023-03-29T01:13:09.339Z,1.90
2023-03-29T01:15:39.588Z,2.67
2023-03-29T01:18:08.700Z,2.20
2023-03-29T01:20:50.782Z,1.92
2023-03-29T01:23:37.798Z,2.35
2023-03-29T01:26:15.763Z,2.33
2023-03-29T01:28:52.472Z,2.72
2023-03-29T01:31:25.118Z,2.67
2023-03-29T01:33:59.650Z,1.95
2023-03-29T01:36:34.875Z,1.98
2023-03-29T01:39:05.979Z,2.20
2023-03-29T01:41:47.697Z,2.28
2023-03-29T01:44:21.896Z,1.50
2023-03-29T01:46:54.202Z,2.58
2023-03-29T01:49:28.269Z,1.98
2023-03-29T01:52:00.658Z,2.63
2023-03-29T01:54:35.964Z,2.10
2023-03-29T01:57:05.891Z,2.03
2023-03-29T01:59:39.492Z,1.95
2023-03-29T02:02:11.510Z,1.83
2023-03-29T02:04:44.663Z,2.03
2023-03-29T02:07:15.336Z,1.85
2023-03-29T02:09:44.240Z,2.10
2023-03-29T02:12:12.994Z,1.70
2023-03-29T02:14:42.010Z,2.33
2023-03-29T02:17:18.134Z,2.83
2023-03-29T02:19:51.813Z,2.15
2023-03-29T02:22:25.172Z,2.20
2023-03-29T02:24:58.949Z,2.28
2023-03-29T02:27:27.940Z,1.90
2023-03-29T02:29:57.402Z,1.90
2023-03-29T02:32:31.058Z,2.00
2023-03-29T02:35:03.212Z,1.90
2023-03-29T02:37:34.375Z,1.70
2023-03-29T02:40:07.882Z,2.00
2023-03-29T02:42:37.741Z,1.65
2023-03-29T02:45:09.404Z,1.70
2023-03-29T02:47:42.309Z,2.00
2023-03-29T02:50:10.473Z,2.20
2023-03-29T02:52:42.557Z,2.17
2023-03-29T02:55:15.328Z,1.67
2023-03-29T02:57:43.764Z,1.67
2023-03-29T03:00:19.860Z,2.05
2023-03-29T03:02:48.949Z,1.30
2023-03-29T03:05:17.395Z,1.50
2023-03-29T03:07:46.118Z,2.08
2023-03-29T03:10:14.635Z,1.30
2023-03-29T03:12:42.392Z,1.60
2023-03-29T03:15:10.551Z,2.00
2023-03-29T03:17:42.055Z,1.98
2023-03-29T03:20:13.618Z,1.92
2023-03-29T03:22:45.110Z,1.55
2023-03-29T03:25:13.054Z,1.30
2023-03-29T03:27:41.237Z,1.80
2023-03-29T03:30:10.119Z,1.50
2023-03-29T03:32:59.157Z,1.80
2023-03-29T03:35:47.883Z,1.98
2023-03-29T03:38:17.504Z,1.67
2023-03-29T03:40:54.936Z,1.60
2023-03-29T03:43:23.149Z,1.60
2023-03-29T03:45:51.897Z,1.55
2023-03-29T03:48:25.696Z,1.23
2023-03-29T03:50:59.783Z,1.90
2023-03-29T03:53:33.732Z,2.33
2023-03-29T03:56:21.475Z,1.48
2023-03-29T03:59:09.185Z,1.63
2023-03-29T04:01:46.814Z,1.35
2023-03-29T04:04:20.696Z,1.60
2023-03-29T04:07:08.648Z,1.65
2023-03-29T04:09:41.756Z,1.88
2023-03-29T04:12:21.448Z,1.90
2023-03-29T04:14:49.760Z,2.65
2023-03-29T04:17:22.261Z,1.52
2023-03-29T04:19:57.408Z,1.50
2023-03-29T04:22:26.955Z,1.77
2023-03-29T04:24:55.247Z,1.98
2023-03-29T04:27:42.944Z,2.38
2023-03-29T04:30:30.716Z,1.48
2023-03-29T04:33:18.565Z,2.08
2023-03-29T04:35:52.897Z,2.00
2023-03-29T04:38:23.306Z,2.30
2023-03-29T04:40:54.775Z,1.42
2023-03-29T04:43:34.321Z,1.55
2023-03-29T04:46:11.351Z,2.30
2023-03-29T04:49:00.117Z,1.95
2023-03-29T04:51:37.123Z,1.45
2023-03-29T04:54:05.781Z,1.85
2023-03-29T04:56:46.320Z,1.65
2023-03-29T04:59:34.938Z,1.45
2023-03-29T05:02:16.214Z,1.77
2023-03-29T05:04:47.874Z,2.00
2023-03-29T05:07:19.466Z,2.10
2023-03-29T05:09:48.492Z,1.50
2023-03-29T05:12:16.457Z,1.80
2023-03-29T05:15:01.519Z,1.30
2023-03-29T05:17:30.404Z,2.00
2023-03-29T05:20:09.163Z,2.00
2023-03-29T05:22:39.189Z,1.83
2023-03-29T05:25:13.222Z,1.80
2023-03-29T05:27:43.997Z,2.90
2023-03-29T05:30:13.570Z,2.10
2023-03-29T05:32:49.891Z,2.17
2023-03-29T05:35:25.400Z,1.70
2023-03-29T05:37:56.263Z,2.65
2023-03-29T05:40:26.107Z,2.70
2023-03-29T05:43:14.161Z,2.90
2023-03-29T05:45:42.008Z,3.53
2023-03-29T05:48:10.519Z,2.75
2023-03-29T05:50:43.295Z,3.35
2023-03-29T05:53:14.122Z,2.60
2023-03-29T05:55:42.395Z,3.03
2023-03-29T05:58:13.114Z,3.22
2023-03-29T06:00:42.792Z,3.08
2023-03-29T06:03:27.263Z,3.00
2023-03-29T06:05:59.751Z,2.60
2023-03-29T06:08:29.635Z,2.53
2023-03-29T06:11:17.510Z,3.00
2023-03-29T06:14:06.186Z,2.70
2023-03-29T06:16:36.275Z,3.10
2023-03-29T06:19:04.060Z,2.50
2023-03-29T06:21:32.929Z,2.55
2023-03-29T06:24:03.899Z,2.80
2023-03-29T06:26:38.288Z,2.42
2023-03-29T06:29:06.265Z,2.42
2023-03-29T06:31:35.998Z,2.45
2023-03-29T06:34:05.878Z,2.58
2023-03-29T06:36:54.790Z,2.60
2023-03-29T06:39:25.793Z,1.73
2023-03-29T06:42:20.545Z,2.30
2023-03-29T06:45:10.350Z,2.92
2023-03-29T06:47:39.866Z,2.53
2023-03-29T06:50:08.534Z,2.88
2023-03-29T06:52:44.685Z,2.50
2023-03-29T06:55:15.805Z,2.13
2023-03-29T06:57:43.659Z,2.53
2023-03-29T07:00:18.121Z,2.80
2023-03-29T07:03:07.949Z,2.60
2023-03-29T07:05:40.586Z,1.98
2023-03-29T07:08:15.116Z,3.10
2023-03-29T07:10:53.523Z,2.20
2023-03-29T07:13:42.293Z,2.80
2023-03-29T07:16:12.462Z,2.50
2023-03-29T07:18:48.680Z,2.45
2023-03-29T07:21:30.786Z,2.75
2023-03-29T07:23:58.918Z,2.80
2023-03-29T07:26:30.502Z,3.17
2023-03-29T07:29:00.875Z,2.97
2023-03-29T07:31:29.747Z,3.35
2023-03-29T07:34:17.652Z,4.05
2023-03-29T07:36:45.514Z,3.65
2023-03-29T07:39:15.264Z,4.00
2023-03-29T07:41:59.399Z,2.70
2023-03-29T07:44:30.200Z,2.90
2023-03-29T07:46:59.911Z,2.80
2023-03-29T07:49:28.962Z,2.47
2023-03-29T07:51:56.990Z,1.90
2023-03-29T07:54:25.741Z,2.38
2023-03-29T07:57:03.781Z,3.35
2023-03-29T07:59:36.850Z,5.22
2023-03-29T08:02:11.578Z,5.07
2023-03-29T08:04:42.759Z,4.90
2023-03-29T08:07:30.855Z,5.35
2023-03-29T08:10:21.175Z,4.03
2023-03-29T08:13:13.330Z,4.75
2023-03-29T08:15:50.233Z,4.32
2023-03-29T08:18:26.052Z,4.60
2023-03-29T08:20:53.990Z,4.68
2023-03-29T08:23:22.644Z,3.88
2023-03-29T08:26:10.336Z,3.42
2023-03-29T08:28:41.069Z,3.10
2023-03-29T08:31:10.758Z,3.00
2023-03-29T08:33:44.130Z,2.47
2023-03-29T08:36:28.559Z,2.20
2023-03-29T08:38:59.550Z,2.25
2023-03-29T08:41:39.436Z,2.55
2023-03-29T08:44:21.456Z,2.10
2023-03-29T08:47:05.022Z,1.88
2023-03-29T08:49:44.642Z,1.60
2023-03-29T08:52:22.048Z,1.80
2023-03-29T08:54:55.141Z,1.95
2023-03-29T08:57:46.225Z,2.65
2023-03-29T09:00:24.353Z,2.90
2023-03-29T09:02:57.331Z,2.55
2023-03-29T09:05:30.963Z,2.30
2023-03-29T09:08:13.292Z,2.13
2023-03-29T09:10:47.475Z,1.85
2023-03-29T09:13:31.734Z,2.28
2023-03-29T09:16:06.083Z,1.73
2023-03-29T09:18:51.590Z,0.95
2023-03-29T09:21:27.118Z,1.60
2023-03-29T09:24:16.455Z,1.17
2023-03-29T09:27:08.474Z,1.40
2023-03-29T09:29:48.742Z,2.20
2023-03-29T09:32:23.209Z,1.65
2023-03-29T09:35:07.840Z,1.20
2023-03-29T09:37:39.443Z,1.50
2023-03-29T09:40:13.376Z,1.10
2023-03-29T09:42:54.806Z,2.38
2023-03-29T09:45:22.879Z,1.33
2023-03-29T09:47:58.785Z,1.17
2023-03-29T09:50:34.012Z,1.43
2023-03-29T09:53:05.545Z,1.60
2023-03-29T09:55:40.145Z,1.37
2023-03-29T09:58:19.370Z,1.40
2023-03-29T10:00:51.606Z,1.20
2023-03-29T10:03:23.774Z,1.33
2023-03-29T10:06:01.453Z,1.10
2023-03-29T10:08:31.683Z,1.30
2023-03-29T10:11:04.337Z,1.50
2023-03-29T10:13:35.630Z,1.13
2023-03-29T10:16:05.963Z,1.37
2023-03-29T10:18:41.828Z,0.93
2023-03-29T10:21:14.424Z,1.00
2023-03-29T10:23:42.566Z,1.00
2023-03-29T10:26:22.788Z,1.30
2023-03-29T10:28:52.750Z,1.20
2023-03-29T10:31:23.317Z,1.00
2023-03-29T10:33:55.523Z,0.90
2023-03-29T10:36:24.770Z,1.10
2023-03-29T10:38:54.163Z,1.20
2023-03-29T10:41:23.904Z,1.17
2023-03-29T10:43:52.489Z,1.00
2023-03-29T10:46:23.119Z,1.30
2023-03-29T10:48:58.395Z,1.47
2023-03-29T10:51:30.001Z,1.50
2023-03-29T10:54:00.700Z,1.87
2023-03-29T10:56:39.925Z,2.00
2023-03-29T10:59:21.870Z,1.53
2023-03-29T11:02:00.479Z,1.43
2023-03-29T11:04:38.125Z,1.60
2023-03-29T11:07:27.976Z,1.30
2023-03-29T11:10:08.215Z,1.07
2023-03-29T11:12:45.177Z,1.50
2023-03-29T11:15:29.343Z,1.30
2023-03-29T11:18:08.168Z,1.47
2023-03-29T11:20:43.133Z,1.53
2023-03-29T11:23:27.923Z,1.80
2023-03-29T11:26:09.622Z,1.10
2023-03-29T11:28:46.640Z,1.43
2023-03-29T11:31:21.764Z,1.07
2023-03-29T11:33:59.481Z,1.13
2023-03-29T11:36:39.545Z,1.03
2023-03-29T11:39:17.369Z,1.60
2023-03-29T11:41:49.843Z,1.37
2023-03-29T11:44:22.489Z,1.57
2023-03-29T11:46:56.758Z,0.90
2023-03-29T11:49:30.564Z,1.10
2023-03-29T11:52:08.923Z,1.40
2023-03-29T11:54:44.691Z,0.93
2023-03-29T11:57:19.908Z,1.30
2023-03-29T11:59:55.355Z,1.60
2023-03-29T12:02:30.528Z,1.10
2023-03-29T12:05:12.047Z,1.13
2023-03-29T12:07:49.552Z,1.53
2023-03-29T12:10:20.804Z,1.00
2023-03-29T12:12:56.158Z,1.30
2023-03-29T12:15:26.207Z,1.00
2023-03-29T12:18:02.907Z,1.00
2023-03-29T12:20:34.984Z,1.10
2023-03-29T12:23:07.164Z,0.90
2023-03-29T12:25:45.482Z,1.40
2023-03-29T12:28:27.819Z,1.17
2023-03-29T12:31:11.398Z,1.37
2023-03-29T12:34:08.225Z,1.60
2023-03-29T12:37:10.778Z,1.30
2023-03-29T12:40:11.704Z,1.93
2023-03-29T12:43:04.594Z,1.03
2023-03-29T12:45:56.055Z,1.37
2023-03-29T12:48:27.573Z,1.00
2023-03-29T12:51:00.880Z,1.53
2023-03-29T12:53:33.326Z,1.70
2023-03-29T12:56:13.731Z,1.67
2023-03-29T12:58:51.336Z,1.47
2023-03-29T13:01:29.628Z,1.40
2023-03-29T13:04:13.861Z,1.27
2023-03-29T13:07:03.115Z,1.20
2023-03-29T13:09:35.445Z,0.90
2023-03-29T13:12:20.893Z,1.17
2023-03-29T13:14:53.306Z,1.10
2023-03-29T13:17:27.159Z,1.00
2023-03-29T13:20:11.863Z,1.13
2023-03-29T13:22:52.068Z,1.20
2023-03-29T13:25:40.664Z,1.10
2023-03-29T13:28:17.042Z,1.20
2023-03-29T13:30:54.069Z,1.23
2023-03-29T13:33:39.527Z,1.67
2023-03-29T13:36:15.428Z,1.37
2023-03-29T13:38:48.657Z,1.37
2023-03-29T13:41:32.097Z,1.63
2023-03-29T13:44:01.629Z,1.10
2023-03-29T13:46:38.610Z,1.50
2023-03-29T13:49:14.138Z,2.13
2023-03-29T13:51:45.209Z,1.27
2023-03-29T13:54:24.180Z,1.20
2023-03-29T13:57:00.450Z,1.20
2023-03-29T13:59:37.555Z,2.87
2023-03-29T14:02:19.355Z,1.30
2023-03-29T14:04:53.559Z,1.47
2023-03-29T14:07:37.915Z,1.07
2023-03-29T14:10:08.370Z,1.13
2023-03-29T14:12:41.703Z,1.20
2023-03-29T14:15:25.476Z,1.30
2023-03-29T14:17:58.944Z,0.90
2023-03-29T14:20:36.123Z,1.07
2023-03-29T14:23:13.272Z,1.03
2023-03-29T14:25:42.529Z,1.27
2023-03-29T14:28:19.866Z,1.10
2023-03-29T14:30:51.029Z,2.10
2023-03-29T14:33:28.706Z,1.50
2023-03-29T14:35:59.953Z,1.00
2023-03-29T14:38:28.237Z,1.10
2023-03-29T14:41:00.607Z,1.23
2023-03-29T14:43:32.036Z,1.10
2023-03-29T14:46:05.082Z,1.80
2023-03-29T14:48:35.103Z,1.30
2023-03-29T14:51:03.253Z,1.50
2023-03-29T14:53:32.297Z,1.20
2023-03-29T14:56:01.941Z,2.20
2023-03-29T14:58:32.997Z,0.97
2023-03-29T15:01:08.007Z,1.80
2023-03-29T15:03:43.680Z,1.13
2023-03-29T15:06:14.355Z,1.33
2023-03-29T15:08:51.160Z,1.90
2023-03-29T15:11:28.091Z,2.07
2023-03-29T15:14:04.220Z,1.00
2023-03-29T15:16:34.277Z,1.43
2023-03-29T15:19:04.402Z,1.17
2023-03-29T15:21:35.343Z,1.00
2023-03-29T15:24:04.480Z,1.20
2023-03-29T15:26:36.474Z,1.37
2023-03-29T15:29:08.464Z,1.50
2023-03-29T15:31:44.659Z,1.30
2023-03-29T15:34:13.867Z,1.43
2023-03-29T15:36:45.281Z,1.53
2023-03-29T15:39:14.069Z,1.20
2023-03-29T15:41:42.021Z,1.37
2023-03-29T15:44:10.969Z,1.10
2023-03-29T15:46:40.451Z,1.00
2023-03-29T15:49:12.377Z,1.00
2023-03-29T15:51:42.317Z,0.90
2023-03-29T15:54:11.432Z,1.10
2023-03-29T15:56:48.808Z,1.40
2023-03-29T15:59:17.941Z,1.10
2023-03-29T16:01:48.691Z,1.57
2023-03-29T16:04:19.824Z,1.87
2023-03-29T16:06:49.451Z,1.40
2023-03-29T16:09:17.841Z,1.50
2023-03-29T16:11:47.404Z,1.77
2023-03-29T16:14:21.138Z,1.40
2023-03-29T16:16:50.559Z,1.37
2023-03-29T16:19:18.375Z,1.67
2023-03-29T16:21:46.448Z,1.33
2023-03-29T16:24:16.600Z,1.70
2023-03-29T16:26:44.509Z,1.70
2023-03-29T16:29:12.433Z,1.37
2023-03-29T16:31:40.459Z,1.27
2023-03-29T16:34:12.949Z,1.57
2023-03-29T16:36:41.004Z,1.47
2023-03-29T16:39:10.546Z,1.30
2023-03-29T16:41:38.646Z,1.30
2023-03-29T16:44:07.016Z,1.37
2023-03-29T16:46:35.693Z,2.00
2023-03-29T16:49:04.258Z,1.10
2023-03-29T16:51:33.363Z,1.70
2023-03-29T16:54:01.432Z,0.90
2023-03-29T16:56:29.605Z,1.30
2023-03-29T16:58:57.600Z,1.90
2023-03-29T17:01:25.480Z,1.40
2023-03-29T17:03:53.605Z,1.80
2023-03-29T17:06:21.812Z,1.60
2023-03-29T17:08:51.403Z,1.60
2023-03-29T17:11:22.991Z,1.90
2023-03-29T17:13:51.383Z,1.70
2023-03-29T17:16:20.097Z,1.60
2023-03-29T17:18:48.006Z,1.40
2023-03-29T17:21:15.808Z,2.20
2023-03-29T17:23:44.962Z,1.60
2023-03-29T17:26:14.123Z,1.40
2023-03-29T17:28:43.402Z,1.77
2023-03-29T17:31:14.073Z,1.63
2023-03-29T17:33:44.645Z,1.30
2023-03-29T17:36:12.571Z,1.48
2023-03-29T17:38:40.358Z,1.80
2023-03-29T17:41:10.944Z,1.42
2023-03-29T17:43:44.880Z,1.27
2023-03-29T17:46:12.718Z,1.87
2023-03-29T17:48:43.954Z,2.00
2023-03-29T17:51:11.695Z,2.27
2023-03-29T17:53:40.709Z,1.77
2023-03-29T17:56:09.242Z,2.20
2023-03-29T17:58:37.051Z,1.57
2023-03-29T18:01:10.003Z,1.67
2023-03-29T18:03:37.986Z,1.37
2023-03-29T18:06:06.994Z,1.67
2023-03-29T18:08:34.790Z,1.57
2023-03-29T18:11:07.611Z,1.40
2023-03-29T18:13:35.479Z,1.90
2023-03-29T18:16:04.238Z,1.35
2023-03-29T18:18:34.121Z,2.25
2023-03-29T18:21:02.510Z,2.17
2023-03-29T18:23:30.274Z,2.80
2023-03-29T18:26:02.828Z,3.20
2023-03-29T18:28:31.113Z,3.17
2023-03-29T18:30:59.014Z,3.92
2023-03-29T18:33:27.123Z,3.70
2023-03-29T18:35:56.202Z,3.42
2023-03-29T18:38:24.080Z,5.05
2023-03-29T18:40:55.320Z,3.78
2023-03-29T18:43:26.641Z,3.70
2023-03-29T18:45:54.337Z,3.55
2023-03-29T18:48:22.134Z,3.40
2023-03-29T18:50:51.188Z,3.95
2023-03-29T18:53:21.095Z,3.53
2023-03-29T18:55:48.859Z,3.55
2023-03-29T18:58:17.660Z,4.22
2023-03-29T19:00:46.001Z,4.00
2023-03-29T19:03:15.248Z,4.40
2023-03-29T19:05:43.416Z,4.30
2023-03-29T19:08:11.190Z,5.10
2023-03-29T19:10:40.851Z,5.28
2023-03-29T19:13:12.418Z,5.40
2023-03-29T19:15:40.577Z,5.50
2023-03-29T19:18:12.131Z,6.00
2023-03-29T19:20:41.165Z,5.40
2023-03-29T19:23:09.006Z,6.22
2023-03-29T19:25:38.390Z,5.55
2023-03-29T19:28:08.565Z,6.93
2023-03-29T19:30:36.807Z,6.95
2023-03-29T19:33:04.846Z,5.75
2023-03-29T19:35:32.629Z,5.20
2023-03-29T19:38:00.674Z,5.30
2023-03-29T19:40:28.406Z,4.85
2023-03-29T19:42:56.137Z,6.43
2023-03-29T19:45:26.452Z,4.90
2023-03-29T19:47:55.377Z,4.28
2023-03-29T19:50:24.065Z,3.17
2023-03-29T19:52:54.208Z,3.72
2023-03-29T19:55:22.404Z,4.55
2023-03-29T19:57:50.163Z,4.53
2023-03-29T20:00:18.716Z,2.45
2023-03-29T20:02:49.593Z,3.33
2023-03-29T20:05:17.713Z,4.15
2023-03-29T20:07:45.691Z,4.45
2023-03-29T20:10:13.515Z,3.40
2023-03-29T20:12:41.300Z,3.70
2023-03-29T20:15:09.946Z,3.85
2023-03-29T20:17:40.555Z,3.42
2023-03-29T20:20:11.971Z,4.18
2023-03-29T20:22:42.037Z,3.80
2023-03-29T20:25:10.365Z,3.50
2023-03-29T20:27:38.249Z,4.45
2023-03-29T20:30:06.977Z,4.20
2023-03-29T20:32:37.419Z,4.20
2023-03-29T20:35:05.842Z,2.40
2023-03-29T20:37:35.916Z,2.83
2023-03-29T20:40:05.669Z,2.92
2023-03-29T20:42:34.658Z,4.30
2023-03-29T20:45:03.254Z,2.55
2023-03-29T20:47:31.008Z,2.80
2023-03-29T20:50:01.525Z,3.53
2023-03-29T20:52:30.564Z,2.60
2023-03-29T20:55:00.392Z,3.10
2023-03-29T20:57:30.324Z,3.45
2023-03-29T20:59:59.095Z,2.25
2023-03-29T21:02:27.365Z,2.55
2023-03-29T21:05:00.156Z,2.90
2023-03-29T21:07:30.326Z,3.45
2023-03-29T21:10:00.994Z,2.45
2023-03-29T21:12:29.059Z,3.10
2023-03-29T21:14:56.780Z,3.25
2023-03-29T21:17:24.666Z,2.70
2023-03-29T21:19:53.109Z,2.53
2023-03-29T21:22:20.826Z,2.08
2023-03-29T21:24:48.558Z,3.13
2023-03-29T21:27:17.630Z,2.55
2023-03-29T21:29:45.560Z,3.83
2023-03-29T21:32:13.273Z,3.72
2023-03-29T21:34:41.119Z,2.40
2023-03-29T21:37:09.017Z,4.50
2023-03-29T21:39:36.739Z,2.70
2023-03-29T21:42:04.810Z,2.88
2023-03-29T21:44:34.527Z,2.22
2023-03-29T21:47:02.423Z,2.20
2023-03-29T21:49:31.563Z,2.75
2023-03-29T21:51:59.375Z,2.15
2023-03-29T21:54:27.194Z,2.05
2023-03-29T21:56:55.037Z,3.45
2023-03-29T21:59:22.887Z,2.80
2023-03-29T22:01:51.984Z,2.37
2023-03-29T22:04:33.219Z,2.33
2023-03-29T22:07:03.554Z,2.23
2023-03-29T22:09:33.145Z,2.93
2023-03-29T22:12:01.434Z,2.90
2023-03-29T22:14:30.085Z,3.03
2023-03-29T22:16:59.189Z,2.80
2023-03-29T22:19:27.004Z,2.83
2023-03-29T22:22:01.362Z,2.30
2023-03-29T22:24:29.918Z,2.10
2023-03-29T22:26:57.718Z,2.13
2023-03-29T22:29:25.486Z,2.03
2023-03-29T22:31:53.272Z,2.77
2023-03-29T22:34:22.356Z,1.93
2023-03-29T22:37:02.155Z,2.57
2023-03-29T22:39:29.943Z,2.57
2023-03-29T22:41:57.674Z,2.70
2023-03-29T22:44:25.479Z,2.40
2023-03-29T22:46:53.856Z,2.37
2023-03-29T22:49:22.927Z,2.17
2023-03-29T22:51:50.604Z,2.93
2023-03-29T22:54:18.649Z,3.23
2023-03-29T22:56:46.670Z,3.70
2023-03-29T22:59:15.661Z,4.30
2023-03-29T23:01:43.429Z,2.60
2023-03-29T23:04:11.419Z,2.50
2023-03-29T23:06:40.789Z,2.37
2023-03-29T23:09:10.057Z,3.10
2023-03-29T23:11:38.066Z,2.67
2023-03-29T23:14:05.755Z,2.50
2023-03-29T23:16:33.665Z,2.37
2023-03-29T23:19:01.779Z,2.60
2023-03-29T23:21:29.513Z,2.10
2023-03-29T23:23:58.635Z,3.00
2023-03-29T23:26:28.009Z,2.77
2023-03-29T23:28:57.369Z,3.43
2023-03-29T23:31:25.189Z,2.37
2023-03-29T23:33:53.158Z,3.10
2023-03-29T23:36:22.826Z,3.30
2023-03-29T23:38:51.272Z,3.43
2023-03-29T23:41:20.312Z,2.37
2023-03-29T23:43:50.068Z,3.50
2023-03-29T23:46:18.726Z,2.80
2023-03-29T23:48:48.863Z,4.37
2023-03-29T23:51:18.032Z,2.33
2023-03-29T23:53:46.446Z,2.57
2023-03-29T23:56:14.170Z,3.70
2023-03-29T23:58:44.251Z,2.80
